Hughes, Arkansas
Current Conditions -  °F | °C
As of 4:43 AM on Friday 24 Oct 2014 (Local Time) from KAWM Reporting Station
Haze Haze  
Wind Chill: 43°   Ceiling: Unl
Heat Index: 43°   Visibility: 1.7mi
Dew Point: 43°   Wind: 0mph
Humidity: 100%   Direction: NA
Pressure: 30.13"   Gusts: NA
Location:  34.95°N, 90.47°W
Report Text: KAWM 240943Z AUTO 00000KT 1 3/4SM BR CLR 06/06 A3013 RMK AO2 T00610061
Loading
Personal Weather Stations






























Interactive Weather Map
Tropical Storm Tracking
New forecast layout! Learn more

10-Day Weather Forecast

Advertisements
Track Severe Weather on mobile